createdAt,value
2022-11-20T00:00:25.160Z,84.98
2022-11-20T00:01:25.189Z,84.98
2022-11-20T00:02:25.238Z,84.98
2022-11-20T00:03:25.105Z,84.88
2022-11-20T00:04:25.141Z,84.67
2022-11-20T00:05:25.078Z,84.88
2022-11-20T00:06:25.104Z,85.19
2022-11-20T00:07:25.099Z,85.08
2022-11-20T00:08:25.062Z,84.88
2022-11-20T00:09:25.041Z,84.67
2022-11-20T00:10:25.068Z,84.77
2022-11-20T00:11:25.047Z,84.67
2022-11-20T00:12:25.014Z,84.56
2022-11-20T00:13:25.003Z,84.36
2022-11-20T00:14:24.994Z,84.05
2022-11-20T00:15:24.997Z,84.05
2022-11-20T00:16:25.004Z,84.15
2022-11-20T00:17:24.993Z,84.15
2022-11-20T00:18:24.961Z,84.15
2022-11-20T00:19:24.933Z,84.15
2022-11-20T00:20:24.948Z,84.05
2022-11-20T00:21:24.907Z,84.05
2022-11-20T00:22:24.921Z,84.46
2022-11-20T00:23:24.954Z,84.56
2022-11-20T00:24:24.886Z,84.67
2022-11-20T00:25:24.907Z,84.25
2022-11-20T00:26:24.907Z,83.84
2022-11-20T00:27:24.873Z,83.84
2022-11-20T00:28:24.861Z,83.84
2022-11-20T00:29:24.920Z,83.94
2022-11-20T00:30:24.828Z,84.15
2022-11-20T00:31:24.817Z,84.15
2022-11-20T00:32:24.809Z,83.84
2022-11-20T00:33:24.789Z,83.63
2022-11-20T00:34:24.771Z,83.63
2022-11-20T00:35:24.765Z,83.73
2022-11-20T00:36:24.737Z,83.84
2022-11-20T00:37:24.764Z,83.84
2022-11-20T00:38:24.746Z,84.15
2022-11-20T00:39:24.729Z,84.29
2022-11-20T00:40:24.725Z,84.29
2022-11-20T00:41:24.724Z,84.29
2022-11-20T00:42:24.672Z,84.08
2022-11-20T00:43:24.671Z,84.29
2022-11-20T00:44:24.707Z,84.29
2022-11-20T00:45:24.647Z,84.50
2022-11-20T00:46:24.641Z,84.50
2022-11-20T00:47:24.622Z,84.39
2022-11-20T00:48:24.595Z,84.70
2022-11-20T00:49:24.617Z,84.70
2022-11-20T00:50:24.590Z,84.36
2022-11-20T00:51:24.612Z,84.39
2022-11-20T00:52:24.583Z,84.29
2022-11-20T00:53:24.550Z,84.29
2022-11-20T00:54:24.576Z,84.19
2022-11-20T00:55:24.554Z,84.29
2022-11-20T00:56:24.537Z,84.39
2022-11-20T00:57:24.521Z,84.50
2022-11-20T00:58:24.499Z,84.39
2022-11-20T00:59:24.515Z,84.19
2022-11-20T01:00:24.536Z,84.39
2022-11-20T01:01:24.527Z,84.50
2022-11-20T01:02:24.466Z,84.29
2022-11-20T01:03:27.122Z,84.70
2022-11-20T01:04:24.684Z,85.12
2022-11-20T01:05:24.446Z,85.12
2022-11-20T01:06:24.435Z,84.91
2022-11-20T01:07:24.479Z,84.67
2022-11-20T01:08:24.395Z,84.88
2022-11-20T01:09:24.445Z,84.88
2022-11-20T01:10:24.374Z,84.67
2022-11-20T01:11:24.408Z,84.36
2022-11-20T01:12:24.345Z,84.36
2022-11-20T01:13:25.768Z,84.60
2022-11-20T01:14:24.350Z,84.70
2022-11-20T01:15:24.308Z,84.81
2022-11-20T01:16:24.338Z,84.81
2022-11-20T01:17:24.289Z,85.22
2022-11-20T01:18:24.280Z,85.22
2022-11-20T01:19:25.222Z,85.12
2022-11-20T01:20:24.272Z,85.12
2022-11-20T01:21:24.267Z,85.33
2022-11-20T01:22:24.263Z,85.12
2022-11-20T01:23:24.236Z,84.91
2022-11-20T01:24:24.219Z,84.81
2022-11-20T01:25:24.202Z,85.02
2022-11-20T01:26:24.219Z,85.02
2022-11-20T01:27:24.187Z,85.02
2022-11-20T01:28:24.180Z,84.91
2022-11-20T01:29:24.583Z,85.22
2022-11-20T01:30:24.137Z,85.12
2022-11-20T01:31:24.193Z,85.33
2022-11-20T01:32:24.130Z,85.43
2022-11-20T01:33:24.131Z,85.43
2022-11-20T01:34:24.141Z,85.53
2022-11-20T01:35:24.090Z,85.43
2022-11-20T01:36:24.073Z,85.33
2022-11-20T01:37:24.098Z,85.33
2022-11-20T01:38:24.069Z,85.12
2022-11-20T01:39:24.552Z,85.02
2022-11-20T01:40:24.045Z,85.02
2022-11-20T01:41:24.022Z,84.91
2022-11-20T01:42:24.026Z,84.91
2022-11-20T01:43:24.008Z,85.12
2022-11-20T01:44:23.997Z,85.33
2022-11-20T01:45:23.987Z,85.22
2022-11-20T01:46:23.983Z,85.33
2022-11-20T01:47:23.960Z,85.43
2022-11-20T01:48:23.961Z,85.64
2022-11-20T01:49:24.156Z,85.43
2022-11-20T01:50:23.915Z,85.33
2022-11-20T01:51:23.949Z,85.33
2022-11-20T01:52:23.922Z,85.43
2022-11-20T01:53:23.913Z,85.22
2022-11-20T01:54:23.873Z,85.12
2022-11-20T01:55:23.862Z,85.12
2022-11-20T01:56:23.886Z,85.12
2022-11-20T01:57:23.868Z,85.12
2022-11-20T01:58:23.834Z,85.02
2022-11-20T01:59:23.915Z,84.91
2022-11-20T02:00:23.832Z,84.60
2022-11-20T02:01:23.839Z,84.67
2022-11-20T02:02:23.858Z,84.67
2022-11-20T02:03:23.780Z,84.56
2022-11-20T02:04:23.769Z,84.67
2022-11-20T02:05:23.769Z,84.77
2022-11-20T02:06:23.747Z,84.88
2022-11-20T02:07:23.831Z,84.98
2022-11-20T02:08:23.783Z,85.19
2022-11-20T02:09:23.912Z,85.08
2022-11-20T02:10:23.711Z,84.88
2022-11-20T02:11:23.700Z,84.56
2022-11-20T02:12:23.722Z,84.15
2022-11-20T02:13:23.683Z,84.05
2022-11-20T02:14:23.680Z,83.73
2022-11-20T02:15:27.590Z,83.73
2022-11-20T02:16:23.643Z,83.94
2022-11-20T02:17:23.647Z,83.84
2022-11-20T02:18:23.624Z,83.94
2022-11-20T02:19:23.786Z,84.05
2022-11-20T02:20:23.598Z,84.15
2022-11-20T02:21:23.570Z,84.15
2022-11-20T02:22:23.607Z,84.05
2022-11-20T02:23:23.550Z,84.25
2022-11-20T02:24:30.150Z,84.36
2022-11-20T02:25:23.555Z,84.46
2022-11-20T02:26:23.539Z,84.56
2022-11-20T02:27:23.530Z,84.67
2022-11-20T02:28:23.531Z,84.67
2022-11-20T02:29:23.527Z,84.88
2022-11-20T02:30:23.505Z,84.98
2022-11-20T02:31:23.466Z,85.08
2022-11-20T02:32:23.478Z,84.88
2022-11-20T02:33:23.527Z,84.88
2022-11-20T02:34:23.467Z,84.77
2022-11-20T02:35:23.436Z,84.88
2022-11-20T02:36:23.441Z,84.77
2022-11-20T02:37:23.409Z,84.77
2022-11-20T02:38:23.422Z,84.88
2022-11-20T02:39:23.573Z,84.98
2022-11-20T02:40:23.389Z,84.88
2022-11-20T02:41:23.386Z,84.88
2022-11-20T02:42:23.351Z,85.08
2022-11-20T02:43:23.334Z,85.19
2022-11-20T02:44:23.357Z,85.29
2022-11-20T02:45:23.304Z,85.39
2022-11-20T02:46:23.324Z,85.29
2022-11-20T02:47:23.322Z,85.08
2022-11-20T02:48:25.225Z,85.08
2022-11-20T02:49:23.706Z,85.33
2022-11-20T02:50:23.259Z,85.53
2022-11-20T02:51:23.274Z,85.64
2022-11-20T02:52:24.176Z,85.53
2022-11-20T02:53:23.245Z,86.05
2022-11-20T02:54:23.207Z,86.26
2022-11-20T02:55:23.225Z,86.26
2022-11-20T02:56:23.220Z,86.26
2022-11-20T02:57:23.188Z,86.26
2022-11-20T02:58:23.183Z,86.47
2022-11-20T02:59:23.666Z,86.47
2022-11-20T03:00:23.167Z,86.47
2022-11-20T03:01:23.240Z,86.93
2022-11-20T03:02:23.149Z,86.88
2022-11-20T03:03:23.114Z,86.82
2022-11-20T03:04:23.162Z,86.93
2022-11-20T03:05:23.103Z,87.13
2022-11-20T03:06:23.082Z,86.93
2022-11-20T03:07:23.101Z,86.82
2022-11-20T03:08:23.090Z,87.03
2022-11-20T03:09:23.474Z,87.24
2022-11-20T03:10:23.063Z,87.45
2022-11-20T03:11:23.028Z,87.86
2022-11-20T03:12:23.018Z,87.55
2022-11-20T03:13:23.027Z,87.65
2022-11-20T03:14:29.514Z,87.55
2022-11-20T03:15:22.984Z,87.86
2022-11-20T03:16:22.975Z,87.76
2022-11-20T03:17:22.953Z,87.55
2022-11-20T03:18:22.979Z,87.65
2022-11-20T03:19:23.301Z,87.65
2022-11-20T03:20:22.955Z,87.76
2022-11-20T03:21:22.934Z,87.76
2022-11-20T03:22:22.931Z,87.65
2022-11-20T03:23:22.905Z,87.45
2022-11-20T03:24:22.883Z,87.40
2022-11-20T03:25:22.887Z,86.99
2022-11-20T03:26:22.889Z,86.68
2022-11-20T03:27:22.867Z,86.57
2022-11-20T03:28:22.842Z,86.68
2022-11-20T03:29:23.216Z,86.57
2022-11-20T03:30:27.580Z,86.36
2022-11-20T03:31:22.833Z,86.36
2022-11-20T03:32:22.794Z,86.26
2022-11-20T03:33:22.800Z,86.05
2022-11-20T03:34:22.776Z,86.26
2022-11-20T03:35:22.814Z,86.26
2022-11-20T03:36:22.785Z,86.05
2022-11-20T03:37:22.760Z,86.16
2022-11-20T03:38:22.756Z,86.05
2022-11-20T03:39:23.013Z,86.05
2022-11-20T03:40:22.714Z,86.05
2022-11-20T03:41:22.715Z,86.16
2022-11-20T03:42:22.686Z,86.26
2022-11-20T03:43:22.688Z,86.26
2022-11-20T03:44:22.678Z,86.26
2022-11-20T03:45:22.653Z,86.26
2022-11-20T03:46:22.641Z,86.26
2022-11-20T03:47:22.631Z,86.26
2022-11-20T03:48:22.631Z,86.36
2022-11-20T03:49:22.899Z,86.26
2022-11-20T03:50:22.586Z,86.57
2022-11-20T03:51:22.590Z,86.78
2022-11-20T03:52:22.599Z,86.68
2022-11-20T03:53:22.576Z,86.68
2022-11-20T03:54:22.587Z,86.57
2022-11-20T03:55:22.613Z,86.57
2022-11-20T03:56:22.545Z,86.57
2022-11-20T03:57:22.521Z,86.47
2022-11-20T03:58:22.532Z,86.88
2022-11-20T03:59:22.783Z,86.99
2022-11-20T04:00:22.500Z,86.99
2022-11-20T04:01:22.544Z,87.09
2022-11-20T04:02:22.477Z,86.99
2022-11-20T04:03:22.481Z,86.88
2022-11-20T04:04:22.464Z,86.88
2022-11-20T04:05:22.441Z,86.99
2022-11-20T04:06:22.499Z,87.09
2022-11-20T04:07:22.426Z,86.99
2022-11-20T04:08:22.459Z,86.99
2022-11-20T04:09:22.658Z,86.99
2022-11-20T04:10:22.406Z,86.95
2022-11-20T04:11:22.394Z,87.09
2022-11-20T04:12:22.353Z,87.09
2022-11-20T04:13:22.366Z,87.30
2022-11-20T04:14:22.356Z,87.51
2022-11-20T04:15:22.349Z,87.09
2022-11-20T04:16:22.310Z,87.09
2022-11-20T04:17:22.298Z,87.30
2022-11-20T04:18:22.313Z,87.51
2022-11-20T04:19:22.684Z,87.61
2022-11-20T04:20:22.286Z,87.61
2022-11-20T04:21:22.270Z,87.82
2022-11-20T04:22:22.259Z,87.71
2022-11-20T04:23:25.882Z,87.61
2022-11-20T04:24:22.236Z,87.61
2022-11-20T04:25:22.206Z,87.71
2022-11-20T04:26:22.205Z,87.82
2022-11-20T04:27:22.208Z,87.82
2022-11-20T04:28:22.179Z,88.02
2022-11-20T04:29:22.453Z,88.02
2022-11-20T04:30:22.213Z,87.92
2022-11-20T04:31:22.201Z,88.13
2022-11-20T04:32:22.156Z,88.23
2022-11-20T04:33:23.034Z,88.34
2022-11-20T04:34:29.612Z,88.34
2022-11-20T04:35:22.114Z,88.44
2022-11-20T04:36:22.123Z,88.44
2022-11-20T04:37:22.128Z,88.23
2022-11-20T04:38:22.099Z,88.13
2022-11-20T04:39:22.413Z,88.02
2022-11-20T04:40:22.061Z,87.92
2022-11-20T04:41:22.054Z,87.92
2022-11-20T04:42:22.050Z,88.02
2022-11-20T04:43:22.037Z,88.13
2022-11-20T04:44:22.020Z,88.13
2022-11-20T04:45:22.004Z,87.99
2022-11-20T04:46:21.979Z,88.02
2022-11-20T04:47:21.983Z,87.92
2022-11-20T04:48:21.989Z,87.92
2022-11-20T04:49:22.329Z,87.82
2022-11-20T04:50:21.939Z,87.92
2022-11-20T04:51:21.938Z,87.82
2022-11-20T04:52:21.933Z,87.92
2022-11-20T04:53:21.924Z,87.92
2022-11-20T04:54:21.912Z,88.02
2022-11-20T04:55:21.872Z,88.34
2022-11-20T04:56:21.889Z,88.34
2022-11-20T04:57:21.877Z,88.34
2022-11-20T04:58:21.881Z,88.44
2022-11-20T04:59:22.033Z,88.44
2022-11-20T05:00:21.852Z,88.13
2022-11-20T05:01:21.892Z,88.02
2022-11-20T05:02:21.820Z,88.13
2022-11-20T05:03:21.791Z,87.92
2022-11-20T05:04:21.802Z,87.92
2022-11-20T05:05:21.777Z,88.02
2022-11-20T05:06:21.806Z,88.23
2022-11-20T05:07:21.776Z,88.44
2022-11-20T05:08:21.811Z,88.54
2022-11-20T05:09:21.975Z,88.34
2022-11-20T05:10:21.728Z,88.34
2022-11-20T05:11:21.717Z,88.44
2022-11-20T05:12:21.723Z,88.65
2022-11-20T05:13:21.705Z,88.85
2022-11-20T05:14:21.661Z,88.85
2022-11-20T05:15:21.689Z,88.75
2022-11-20T05:16:21.680Z,88.85
2022-11-20T05:17:21.638Z,88.75
2022-11-20T05:18:21.619Z,88.79
2022-11-20T05:19:21.852Z,88.85
2022-11-20T05:20:21.597Z,88.85
2022-11-20T05:21:21.650Z,88.85
2022-11-20T05:22:21.629Z,88.65
2022-11-20T05:23:21.594Z,88.65
2022-11-20T05:24:21.610Z,88.34
2022-11-20T05:25:21.581Z,88.13
2022-11-20T05:26:21.554Z,88.13
2022-11-20T05:27:21.527Z,88.13
2022-11-20T05:28:21.531Z,88.13
2022-11-20T05:29:21.771Z,88.13
2022-11-20T05:30:21.495Z,88.09
2022-11-20T05:31:26.702Z,88.20
2022-11-20T05:32:21.488Z,88.09
2022-11-20T05:33:21.468Z,88.13
2022-11-20T05:34:21.444Z,88.23
2022-11-20T05:35:21.458Z,88.34
2022-11-20T05:36:21.450Z,88.44
2022-11-20T05:37:21.437Z,88.54
2022-11-20T05:38:21.414Z,88.75
2022-11-20T05:39:21.823Z,88.75
2022-11-20T05:40:21.424Z,88.65
2022-11-20T05:41:21.392Z,88.54
2022-11-20T05:42:21.382Z,88.44
2022-11-20T05:43:21.371Z,88.34
2022-11-20T05:44:21.369Z,88.23
2022-11-20T05:45:21.343Z,88.23
2022-11-20T05:46:27.640Z,88.34
2022-11-20T05:47:21.343Z,88.34
2022-11-20T05:48:21.325Z,88.20
2022-11-20T05:49:21.730Z,88.20
2022-11-20T05:50:21.311Z,88.23
2022-11-20T05:51:21.256Z,88.30
2022-11-20T05:52:21.255Z,88.30
2022-11-20T05:53:21.254Z,88.40
2022-11-20T05:54:21.250Z,88.51
2022-11-20T05:55:21.220Z,88.40
2022-11-20T05:56:21.210Z,88.30
2022-11-20T05:57:21.194Z,88.30
2022-11-20T05:58:21.206Z,88.40
2022-11-20T05:59:21.446Z,88.40
2022-11-20T06:00:21.187Z,88.30
2022-11-20T06:01:21.175Z,88.30
2022-11-20T06:02:21.240Z,88.20
2022-11-20T06:03:21.126Z,88.09
2022-11-20T06:04:21.125Z,87.99
2022-11-20T06:05:21.137Z,87.99
2022-11-20T06:06:21.117Z,88.20
2022-11-20T06:07:21.137Z,88.51
2022-11-20T06:08:21.107Z,88.71
2022-11-20T06:09:21.432Z,88.82
2022-11-20T06:10:21.174Z,88.82
2022-11-20T06:11:21.053Z,88.82
2022-11-20T06:12:21.028Z,88.82
2022-11-20T06:13:21.054Z,88.82
2022-11-20T06:14:21.010Z,89.03
2022-11-20T06:15:21.016Z,89.13
2022-11-20T06:16:21.011Z,88.98
2022-11-20T06:17:20.983Z,88.78
2022-11-20T06:18:20.961Z,88.67
2022-11-20T06:19:21.360Z,88.67
2022-11-20T06:20:20.932Z,88.67
2022-11-20T06:21:20.962Z,88.57
2022-11-20T06:22:20.911Z,88.57
2022-11-20T06:23:20.927Z,88.36
2022-11-20T06:24:20.909Z,88.36
2022-11-20T06:25:20.916Z,88.46
2022-11-20T06:26:21.220Z,88.57
2022-11-20T06:27:20.866Z,88.78
2022-11-20T06:28:20.846Z,88.78
2022-11-20T06:29:21.279Z,88.82
2022-11-20T06:30:20.825Z,88.92
2022-11-20T06:31:20.857Z,89.13
2022-11-20T06:32:20.845Z,89.23
2022-11-20T06:33:20.819Z,89.44
2022-11-20T06:34:20.779Z,89.44
2022-11-20T06:35:20.814Z,89.54
2022-11-20T06:36:20.813Z,89.75
2022-11-20T06:37:20.769Z,89.86
2022-11-20T06:38:20.746Z,89.86
2022-11-20T06:39:20.986Z,89.86
2022-11-20T06:40:20.760Z,89.86
2022-11-20T06:41:20.795Z,89.75
2022-11-20T06:42:20.700Z,89.75
2022-11-20T06:43:20.680Z,89.86
2022-11-20T06:44:27.248Z,89.86
2022-11-20T06:45:20.687Z,89.96
2022-11-20T06:46:20.683Z,89.96
2022-11-20T06:47:20.637Z,89.92
2022-11-20T06:48:20.651Z,89.81
2022-11-20T06:49:21.205Z,89.71
2022-11-20T06:50:20.632Z,89.61
2022-11-20T06:51:20.613Z,89.40
2022-11-20T06:52:20.617Z,89.40
2022-11-20T06:53:20.616Z,89.50
2022-11-20T06:54:20.566Z,89.40
2022-11-20T06:55:20.554Z,89.40
2022-11-20T06:56:20.537Z,89.40
2022-11-20T06:57:20.532Z,89.40
2022-11-20T06:58:20.523Z,89.40
2022-11-20T06:59:21.097Z,89.29
2022-11-20T07:00:20.493Z,89.29
2022-11-20T07:01:20.546Z,89.19
2022-11-20T07:02:20.469Z,88.98
2022-11-20T07:03:20.506Z,89.09
2022-11-20T07:04:26.994Z,89.09
2022-11-20T07:05:20.473Z,89.04
2022-11-20T07:06:20.447Z,88.98
2022-11-20T07:07:20.515Z,88.98
2022-11-20T07:08:20.425Z,89.09
2022-11-20T07:09:20.406Z,89.09
2022-11-20T07:10:20.386Z,89.19
2022-11-20T07:11:20.409Z,89.40
2022-11-20T07:12:20.478Z,89.40
2022-11-20T07:13:20.358Z,89.40
2022-11-20T07:14:20.364Z,89.40
2022-11-20T07:15:20.333Z,89.61
2022-11-20T07:16:20.318Z,89.50
2022-11-20T07:17:20.347Z,89.50
2022-11-20T07:18:20.303Z,89.71
2022-11-20T07:19:20.766Z,89.71
2022-11-20T07:20:20.283Z,89.50
2022-11-20T07:21:20.267Z,89.40
2022-11-20T07:22:20.280Z,89.29
2022-11-20T07:23:20.247Z,89.40
2022-11-20T07:24:20.263Z,89.40
2022-11-20T07:25:20.243Z,89.29
2022-11-20T07:26:20.249Z,89.19
2022-11-20T07:27:20.222Z,89.29
2022-11-20T07:28:20.219Z,89.50
2022-11-20T07:29:20.545Z,89.61
2022-11-20T07:30:20.162Z,89.61
2022-11-20T07:31:20.199Z,89.61
2022-11-20T07:32:20.184Z,89.50
2022-11-20T07:33:20.151Z,89.56
2022-11-20T07:34:20.151Z,89.46
2022-11-20T07:35:20.102Z,89.04
2022-11-20T07:36:20.144Z,88.84
2022-11-20T07:37:20.090Z,88.84
2022-11-20T07:38:20.142Z,88.84
2022-11-20T07:39:20.402Z,88.84
2022-11-20T07:40:20.094Z,88.32
2022-11-20T07:41:20.069Z,88.11
2022-11-20T07:42:20.065Z,88.32
2022-11-20T07:43:20.124Z,88.73
2022-11-20T07:44:26.562Z,88.84
2022-11-20T07:45:20.009Z,89.04
2022-11-20T07:46:20.048Z,88.94
2022-11-20T07:47:19.990Z,88.73
2022-11-20T07:48:19.992Z,88.73
2022-11-20T07:49:20.423Z,88.94
2022-11-20T07:50:19.984Z,89.04
2022-11-20T07:51:19.964Z,88.94
2022-11-20T07:52:19.965Z,88.94
2022-11-20T07:53:19.919Z,88.84
2022-11-20T07:54:19.946Z,88.84
2022-11-20T07:55:19.915Z,88.84
2022-11-20T07:56:19.935Z,88.94
2022-11-20T07:57:22.156Z,89.04
2022-11-20T07:58:19.912Z,89.04
2022-11-20T07:59:20.277Z,89.04
2022-11-20T08:00:19.856Z,89.04
2022-11-20T08:01:19.913Z,89.11
2022-11-20T08:02:19.847Z,88.90
2022-11-20T08:03:24.604Z,88.90
2022-11-20T08:04:19.878Z,88.69
2022-11-20T08:05:19.825Z,88.79
2022-11-20T08:06:19.815Z,88.94
2022-11-20T08:07:19.840Z,88.94
2022-11-20T08:08:19.767Z,88.73
2022-11-20T08:09:20.203Z,88.84
2022-11-20T08:10:19.768Z,88.94
2022-11-20T08:11:19.730Z,89.00
2022-11-20T08:12:19.716Z,89.00
2022-11-20T08:13:19.708Z,88.90
2022-11-20T08:14:19.793Z,88.39
2022-11-20T08:15:19.682Z,87.97
2022-11-20T08:16:19.688Z,88.07
2022-11-20T08:17:19.690Z,88.59
2022-11-20T08:18:35.161Z,88.48
2022-11-20T08:19:20.089Z,88.48
2022-11-20T08:20:19.668Z,88.59
2022-11-20T08:21:19.645Z,88.59
2022-11-20T08:22:19.644Z,88.18
2022-11-20T08:23:19.665Z,87.97
2022-11-20T08:24:26.146Z,87.76
2022-11-20T08:25:19.592Z,87.76
2022-11-20T08:26:19.573Z,87.66
2022-11-20T08:27:19.569Z,87.66
2022-11-20T08:28:21.897Z,87.72
2022-11-20T08:29:19.682Z,87.51
2022-11-20T08:30:19.575Z,87.20
2022-11-20T08:31:19.513Z,87.10
2022-11-20T08:32:19.490Z,86.68
2022-11-20T08:33:19.645Z,86.68
2022-11-20T08:34:19.489Z,86.89
2022-11-20T08:35:19.450Z,86.89
2022-11-20T08:36:19.448Z,86.79
2022-11-20T08:37:19.446Z,86.47
2022-11-20T08:38:19.469Z,85.96
2022-11-20T08:39:19.836Z,86.07
2022-11-20T08:40:19.868Z,86.02
2022-11-20T08:41:19.406Z,86.13
2022-11-20T08:42:19.370Z,85.71
2022-11-20T08:43:19.406Z,85.40
2022-11-20T08:44:19.345Z,85.40
2022-11-20T08:45:19.417Z,85.30
2022-11-20T08:46:19.360Z,85.26
2022-11-20T08:47:19.370Z,85.36
2022-11-20T08:48:19.345Z,85.05
2022-11-20T08:49:19.546Z,85.16
2022-11-20T08:50:19.285Z,84.84
2022-11-20T08:51:19.333Z,84.64
2022-11-20T08:52:19.277Z,84.74
2022-11-20T08:53:19.257Z,84.84
2022-11-20T08:54:25.796Z,84.84
2022-11-20T08:55:19.244Z,84.95
2022-11-20T08:56:19.238Z,85.05
2022-11-20T08:57:19.240Z,84.95
2022-11-20T08:58:19.220Z,84.95
2022-11-20T08:59:36.676Z,85.05
2022-11-20T09:00:19.191Z,85.16
2022-11-20T09:01:19.229Z,84.84
2022-11-20T09:02:19.170Z,84.60
2022-11-20T09:03:19.171Z,84.39
2022-11-20T09:04:19.158Z,83.98
2022-11-20T09:05:19.130Z,83.98
2022-11-20T09:06:19.100Z,83.77
2022-11-20T09:07:19.116Z,83.56
2022-11-20T09:08:19.092Z,83.32
2022-11-20T09:09:19.426Z,83.11
2022-11-20T09:10:26.322Z,83.11
2022-11-20T09:11:19.077Z,82.97
2022-11-20T09:12:19.085Z,82.83
2022-11-20T09:13:19.092Z,82.00
2022-11-20T09:14:19.026Z,81.70
2022-11-20T09:15:19.041Z,81.18
2022-11-20T09:16:19.059Z,81.28
2022-11-20T09:17:19.047Z,81.28
2022-11-20T09:18:18.973Z,81.49
2022-11-20T09:19:35.868Z,81.80
2022-11-20T09:20:19.003Z,81.90
2022-11-20T09:21:18.969Z,82.00
2022-11-20T09:22:18.945Z,82.04
2022-11-20T09:23:18.947Z,82.25
2022-11-20T09:24:18.922Z,82.52
2022-11-20T09:25:18.920Z,82.21
2022-11-20T09:26:18.900Z,82.21
2022-11-20T09:27:18.891Z,82.00
2022-11-20T09:28:18.868Z,81.90
2022-11-20T09:29:19.422Z,81.90
2022-11-20T09:30:18.842Z,82.10
2022-11-20T09:31:18.850Z,82.28
2022-11-20T09:32:18.845Z,82.38
2022-11-20T09:33:18.831Z,81.96
2022-11-20T09:34:18.837Z,81.86
2022-11-20T09:35:18.784Z,81.51
2022-11-20T09:36:18.807Z,81.00
2022-11-20T09:37:18.774Z,80.69
2022-11-20T09:38:18.783Z,80.58
2022-11-20T09:39:19.237Z,80.28
2022-11-20T09:40:18.763Z,80.38
2022-11-20T09:41:18.725Z,80.48
2022-11-20T09:42:18.733Z,80.42
2022-11-20T09:43:18.716Z,81.24
2022-11-20T09:44:18.683Z,81.38
2022-11-20T09:45:18.663Z,81.70
2022-11-20T09:46:18.666Z,81.86
2022-11-20T09:47:18.730Z,81.86
2022-11-20T09:48:18.633Z,81.62
2022-11-20T09:49:18.953Z,80.69
2022-11-20T09:50:18.737Z,80.44
2022-11-20T09:51:18.612Z,80.04
2022-11-20T09:52:18.636Z,79.93
2022-11-20T09:53:18.600Z,79.72
2022-11-20T09:54:18.571Z,79.93
2022-11-20T09:55:18.561Z,80.55
2022-11-20T09:56:22.500Z,80.34
2022-11-20T09:57:18.556Z,80.34
2022-11-20T09:58:18.541Z,80.24
2022-11-20T09:59:18.600Z,80.04
2022-11-20T10:00:18.553Z,79.69
2022-11-20T10:01:18.547Z,79.48
2022-11-20T10:02:18.475Z,79.58
2022-11-20T10:03:18.500Z,79.58
2022-11-20T10:04:25.061Z,79.38
2022-11-20T10:05:18.455Z,79.48
2022-11-20T10:06:18.425Z,79.48
2022-11-20T10:07:31.916Z,79.48
2022-11-20T10:08:18.443Z,79.69
2022-11-20T10:09:18.413Z,79.69
2022-11-20T10:10:18.538Z,79.41
2022-11-20T10:11:18.394Z,79.41
2022-11-20T10:12:18.370Z,79.72
2022-11-20T10:13:18.374Z,79.83
2022-11-20T10:14:18.352Z,80.24
2022-11-20T10:15:18.337Z,80.76
2022-11-20T10:16:18.313Z,80.96
2022-11-20T10:17:18.338Z,80.55
2022-11-20T10:18:18.369Z,80.65
2022-11-20T10:19:18.310Z,80.41
2022-11-20T10:20:18.454Z,80.10
2022-11-20T10:21:18.276Z,79.27
2022-11-20T10:22:18.247Z,79.55
2022-11-20T10:23:22.766Z,79.14
2022-11-20T10:24:18.252Z,75.32
2022-11-20T10:25:18.270Z,71.18
2022-11-20T10:26:18.204Z,69.13
2022-11-20T10:27:18.211Z,66.69
2022-11-20T10:28:18.211Z,65.87
2022-11-20T10:29:18.200Z,66.10
2022-11-20T10:30:18.157Z,66.34
2022-11-20T10:31:18.182Z,66.98
2022-11-20T10:32:18.153Z,66.98
2022-11-20T10:33:18.133Z,66.98
2022-11-20T10:34:22.696Z,67.43
2022-11-20T10:35:18.126Z,68.07
2022-11-20T10:36:18.108Z,68.72
2022-11-20T10:37:18.078Z,69.67
2022-11-20T10:38:18.105Z,70.36
2022-11-20T10:39:18.056Z,71.17
2022-11-20T10:40:18.061Z,71.41
2022-11-20T10:41:18.051Z,71.93
2022-11-20T10:42:18.085Z,72.65
2022-11-20T10:43:18.047Z,72.99
2022-11-20T10:44:18.012Z,73.23
2022-11-20T10:45:18.007Z,73.54
2022-11-20T10:46:18.008Z,73.98
2022-11-20T10:47:17.986Z,74.91
2022-11-20T10:48:17.995Z,74.50
2022-11-20T10:49:18.022Z,74.91
2022-11-20T10:50:22.335Z,75.01
2022-11-20T10:51:17.948Z,75.12
2022-11-20T10:52:17.916Z,74.98
2022-11-20T10:53:18.108Z,74.87
2022-11-20T10:54:17.920Z,75.18
2022-11-20T10:55:17.874Z,75.39
2022-11-20T10:56:17.887Z,74.98
2022-11-20T10:57:17.896Z,75.12
2022-11-20T10:58:17.884Z,76.18
2022-11-20T10:59:17.861Z,77.00
2022-11-20T11:00:17.846Z,76.59
2022-11-20T11:01:17.996Z,77.21
2022-11-20T11:02:17.800Z,77.45
2022-11-20T11:03:17.830Z,77.66
2022-11-20T11:04:17.783Z,78.17
2022-11-20T11:05:17.764Z,77.97
2022-11-20T11:06:17.782Z,77.08
2022-11-20T11:07:17.793Z,77.18
2022-11-20T11:08:17.772Z,77.83
2022-11-20T11:09:17.721Z,77.94
2022-11-20T11:10:17.737Z,78.45
2022-11-20T11:11:17.719Z,78.55
2022-11-20T11:12:17.717Z,78.52
2022-11-20T11:13:17.717Z,78.21
2022-11-20T11:14:17.696Z,78.52
2022-11-20T11:15:17.675Z,78.76
2022-11-20T11:16:17.668Z,78.97
2022-11-20T11:17:17.643Z,79.07
2022-11-20T11:18:17.699Z,79.07
2022-11-20T11:19:17.693Z,79.03
2022-11-20T11:20:17.713Z,79.03
2022-11-20T11:21:17.604Z,78.86
2022-11-20T11:22:17.612Z,78.86
2022-11-20T11:23:17.621Z,78.76
2022-11-20T11:24:40.417Z,79.07
2022-11-20T11:25:17.575Z,79.58
2022-11-20T11:26:17.538Z,79.55
2022-11-20T11:27:18.021Z,79.03
2022-11-20T11:28:17.531Z,79.14
2022-11-20T11:29:17.563Z,79.03
2022-11-20T11:30:17.517Z,78.58
2022-11-20T11:31:17.496Z,78.28
2022-11-20T11:32:17.509Z,78.28
2022-11-20T11:33:17.474Z,77.62
2022-11-20T11:34:17.457Z,77.00
2022-11-20T11:35:17.442Z,77.55
2022-11-20T11:36:17.462Z,77.97
2022-11-20T11:37:17.453Z,78.03
2022-11-20T11:38:17.395Z,78.03
2022-11-20T11:39:17.413Z,77.42
2022-11-20T11:40:25.411Z,77.07
2022-11-20T11:41:17.394Z,76.86
2022-11-20T11:42:17.390Z,76.76
2022-11-20T11:43:17.369Z,76.49
2022-11-20T11:44:17.351Z,77.21
2022-11-20T11:45:17.348Z,77.66
2022-11-20T11:46:17.326Z,77.86
2022-11-20T11:47:17.305Z,77.97
2022-11-20T11:48:17.300Z,78.28
2022-11-20T11:49:17.296Z,78.44
2022-11-20T11:50:17.508Z,78.03
2022-11-20T11:51:17.388Z,77.38
2022-11-20T11:52:17.276Z,77.48
2022-11-20T11:53:17.255Z,77.79
2022-11-20T11:54:17.234Z,77.93
2022-11-20T11:55:17.278Z,77.79
2022-11-20T11:56:17.255Z,77.62
2022-11-20T11:57:17.221Z,77.42
2022-11-20T11:58:17.176Z,77.17
2022-11-20T11:59:17.173Z,77.11
2022-11-20T12:00:17.157Z,77.51
2022-11-20T12:01:17.247Z,78.03
2022-11-20T12:02:17.175Z,78.44
2022-11-20T12:03:17.188Z,78.44
2022-11-20T12:04:17.130Z,78.86
2022-11-20T12:05:17.107Z,78.75
2022-11-20T12:06:17.096Z,78.65
2022-11-20T12:07:44.957Z,78.34
2022-11-20T12:08:17.158Z,78.14
2022-11-20T12:09:17.062Z,78.34
2022-11-20T12:10:17.308Z,78.03
2022-11-20T12:11:17.140Z,78.03
2022-11-20T12:12:17.049Z,78.14
2022-11-20T12:13:17.010Z,77.79
2022-11-20T12:14:17.043Z,77.17
2022-11-20T12:15:16.984Z,77.07
2022-11-20T12:16:18.187Z,76.62
2022-11-20T12:17:16.986Z,76.21
2022-11-20T12:18:16.998Z,76.01
2022-11-20T12:19:16.967Z,75.80
2022-11-20T12:20:16.945Z,76.01
2022-11-20T12:21:17.737Z,76.42
2022-11-20T12:22:16.958Z,76.76
2022-11-20T12:23:16.917Z,76.97
2022-11-20T12:24:16.901Z,77.38
2022-11-20T12:25:16.891Z,77.38
2022-11-20T12:26:16.889Z,78.44
2022-11-20T12:27:16.847Z,78.75
2022-11-20T12:28:16.893Z,78.96
2022-11-20T12:29:16.863Z,78.86
2022-11-20T12:30:16.891Z,78.75
2022-11-20T12:31:16.923Z,78.96
2022-11-20T12:32:16.813Z,78.55
2022-11-20T12:33:16.853Z,78.55
2022-11-20T12:34:16.797Z,78.44
2022-11-20T12:35:16.792Z,78.44
2022-11-20T12:36:17.540Z,78.30
2022-11-20T12:37:16.777Z,78.30
2022-11-20T12:38:16.752Z,78.20
2022-11-20T12:39:16.749Z,78.10
2022-11-20T12:40:16.717Z,78.30
2022-11-20T12:41:16.755Z,78.20
2022-11-20T12:42:16.783Z,77.89
2022-11-20T12:43:16.681Z,78.20
2022-11-20T12:44:16.662Z,78.20
2022-11-20T12:45:16.706Z,78.00
2022-11-20T12:46:16.664Z,77.69
2022-11-20T12:47:16.684Z,77.69
2022-11-20T12:48:16.632Z,77.96
2022-11-20T12:49:16.637Z,77.75
2022-11-20T12:50:16.642Z,76.90
2022-11-20T12:51:16.649Z,76.79
2022-11-20T12:52:16.629Z,76.28